createdAt,value
2018-03-03T00:01:19.721Z,32.97
2018-03-03T00:03:47.359Z,34.53
2018-03-03T00:06:14.851Z,35.63
2018-03-03T00:08:42.399Z,31.73
2018-03-03T00:11:10.032Z,32.00
2018-03-03T00:13:37.557Z,33.67
2018-03-03T00:16:05.062Z,32.47
2018-03-03T00:18:32.621Z,31.40
2018-03-03T00:21:00.180Z,31.93
2018-03-03T00:23:27.704Z,31.53
2018-03-03T00:25:55.210Z,31.97
2018-03-03T00:28:22.717Z,30.53
2018-03-03T00:30:50.207Z,30.10
2018-03-03T00:33:17.715Z,31.93
2018-03-03T00:35:45.216Z,31.93
2018-03-03T00:38:12.747Z,30.97
2018-03-03T00:40:40.240Z,31.40
2018-03-03T00:43:07.814Z,30.73
2018-03-03T00:45:35.447Z,31.60
2018-03-03T00:48:02.964Z,32.17
2018-03-03T00:50:30.463Z,32.40
2018-03-03T00:52:57.963Z,31.60
2018-03-03T00:55:25.498Z,33.47
2018-03-03T00:57:53.017Z,32.20
2018-03-03T01:00:20.538Z,32.97
2018-03-03T01:02:48.055Z,34.80
2018-03-03T01:05:15.571Z,33.23
2018-03-03T01:07:43.108Z,33.13
2018-03-03T01:10:10.637Z,30.30
2018-03-03T01:12:38.143Z,32.83
2018-03-03T01:15:05.679Z,32.27
2018-03-03T01:17:33.345Z,31.23
2018-03-03T01:20:00.898Z,32.73
2018-03-03T01:22:28.400Z,31.93
2018-03-03T01:24:56.086Z,31.00
2018-03-03T01:27:23.580Z,31.83
2018-03-03T01:29:51.095Z,32.47
2018-03-03T01:32:18.623Z,32.47
2018-03-03T01:34:46.155Z,31.07
2018-03-03T01:37:13.651Z,30.77
2018-03-03T01:39:41.174Z,32.27
2018-03-03T01:42:08.667Z,29.67
2018-03-03T01:44:36.215Z,28.67
2018-03-03T01:47:03.727Z,28.27
2018-03-03T01:49:31.308Z,28.20
2018-03-03T01:51:58.867Z,28.03
2018-03-03T01:54:26.395Z,29.67
2018-03-03T01:56:53.887Z,27.77
2018-03-03T01:59:21.437Z,27.83
2018-03-03T02:01:48.948Z,28.97
2018-03-03T02:04:16.564Z,27.37
2018-03-03T02:06:44.063Z,30.13
2018-03-03T02:09:11.581Z,26.87
2018-03-03T02:11:39.108Z,26.37
2018-03-03T02:14:06.712Z,27.57
2018-03-03T02:16:34.388Z,26.97
2018-03-03T02:19:01.886Z,28.20
2018-03-03T02:21:29.476Z,26.37
2018-03-03T02:23:56.972Z,27.73
2018-03-03T02:26:24.610Z,28.17
2018-03-03T02:28:52.167Z,28.00
2018-03-03T02:31:19.689Z,28.03
2018-03-03T02:33:47.195Z,29.47
2018-03-03T02:36:14.725Z,27.80
2018-03-03T02:38:42.277Z,28.63
2018-03-03T02:41:09.799Z,27.60
2018-03-03T02:43:37.332Z,31.33
2018-03-03T02:46:04.884Z,26.37
2018-03-03T02:48:32.388Z,28.00
2018-03-03T02:50:59.923Z,28.23
2018-03-03T02:53:27.451Z,28.33
2018-03-03T02:55:54.971Z,26.83
2018-03-03T02:58:22.473Z,27.47
2018-03-03T03:00:49.997Z,28.10
2018-03-03T03:03:17.521Z,28.63
2018-03-03T03:05:45.016Z,27.03
2018-03-03T03:08:12.599Z,26.33
2018-03-03T03:10:40.167Z,26.90
2018-03-03T03:13:07.690Z,24.23
2018-03-03T03:15:35.285Z,28.43
2018-03-03T03:18:02.866Z,27.83
2018-03-03T03:20:30.381Z,28.17
2018-03-03T03:22:57.900Z,29.60
2018-03-03T03:25:25.651Z,29.57
2018-03-03T03:27:53.191Z,32.40
2018-03-03T03:30:20.688Z,32.83
2018-03-03T03:32:48.223Z,33.10
2018-03-03T03:35:15.752Z,34.63
2018-03-03T03:37:43.267Z,35.67
2018-03-03T03:40:10.780Z,36.07
2018-03-03T03:42:38.335Z,35.90
2018-03-03T03:45:05.828Z,34.53
2018-03-03T03:47:33.455Z,36.30
2018-03-03T03:50:01.053Z,36.67
2018-03-03T03:52:28.805Z,35.97
2018-03-03T03:54:56.347Z,33.20
2018-03-03T03:57:23.906Z,35.57
2018-03-03T03:59:51.399Z,32.87
2018-03-03T04:02:19.027Z,33.10
2018-03-03T04:04:46.584Z,33.80
2018-03-03T04:07:14.146Z,33.13
2018-03-03T04:09:41.644Z,29.63
2018-03-03T04:12:09.145Z,32.63
2018-03-03T04:14:36.668Z,30.67
2018-03-03T04:17:04.180Z,32.77
2018-03-03T04:19:31.731Z,32.70
2018-03-03T04:21:59.235Z,33.67
2018-03-03T04:24:26.762Z,32.57
2018-03-03T04:26:54.265Z,35.03
2018-03-03T04:29:21.788Z,34.00
2018-03-03T04:31:49.325Z,35.20
2018-03-03T04:34:16.844Z,35.77
2018-03-03T04:36:44.356Z,33.50
2018-03-03T04:39:11.910Z,34.57
2018-03-03T04:41:39.398Z,36.03
2018-03-03T04:44:06.916Z,33.30
2018-03-03T04:46:34.459Z,34.37
2018-03-03T04:49:01.981Z,34.93
2018-03-03T04:51:29.487Z,36.70
2018-03-03T04:53:57.004Z,36.53
2018-03-03T04:56:24.499Z,38.00
2018-03-03T04:58:56.040Z,35.73
2018-03-03T05:01:24.106Z,37.27
2018-03-03T05:03:53.568Z,38.67
2018-03-03T05:06:21.087Z,37.47
2018-03-03T05:08:48.603Z,38.37
2018-03-03T05:11:16.111Z,36.53
2018-03-03T05:13:43.627Z,36.70
2018-03-03T05:16:27.083Z,37.30
2018-03-03T05:19:00.152Z,36.50
2018-03-03T05:21:33.312Z,35.87
2018-03-03T05:24:06.496Z,38.63
2018-03-03T05:26:39.695Z,37.13
2018-03-03T05:29:13.004Z,36.97
2018-03-03T05:31:46.199Z,36.33
2018-03-03T05:34:19.425Z,34.73
2018-03-03T05:39:58.620Z,35.97
2018-03-03T05:45:47.764Z,35.07
2018-03-03T05:51:34.998Z,36.83
2018-03-03T05:54:09.128Z,35.17
2018-03-03T05:56:51.359Z,36.10
2018-03-03T05:59:24.610Z,39.27
2018-03-03T06:05:00.251Z,37.97
2018-03-03T06:07:31.699Z,36.83
2018-03-03T06:09:59.223Z,38.63
2018-03-03T06:12:26.739Z,38.37
2018-03-03T06:14:54.247Z,37.10
2018-03-03T06:17:21.765Z,36.90
2018-03-03T06:19:49.262Z,40.33
2018-03-03T06:22:16.789Z,37.27
2018-03-03T06:24:44.303Z,38.17
2018-03-03T06:27:11.840Z,36.77
2018-03-03T06:29:39.336Z,40.07
2018-03-03T06:32:06.853Z,41.70
2018-03-03T06:34:34.343Z,38.00
2018-03-03T06:37:01.866Z,38.53
2018-03-03T06:39:29.363Z,38.53
2018-03-03T06:41:56.897Z,40.63
2018-03-03T06:44:24.454Z,40.33
2018-03-03T06:46:52.003Z,43.30
2018-03-03T06:49:19.494Z,42.57
2018-03-03T06:51:47.019Z,40.17
2018-03-03T06:54:14.608Z,44.00
2018-03-03T06:56:42.136Z,50.03
2018-03-03T06:59:09.652Z,43.93
2018-03-03T07:01:37.204Z,46.60
2018-03-03T07:04:05.770Z,53.20
2018-03-03T07:06:33.294Z,46.53
2018-03-03T07:09:00.867Z,43.33
2018-03-03T07:11:28.383Z,43.00
2018-03-03T07:13:55.876Z,40.03
2018-03-03T07:16:23.403Z,39.83
2018-03-03T07:18:50.902Z,45.60
2018-03-03T07:21:18.459Z,39.03
2018-03-03T07:23:45.950Z,41.90
2018-03-03T07:26:13.477Z,40.87
2018-03-03T07:28:41.026Z,42.00
2018-03-03T07:31:08.611Z,43.73
2018-03-03T07:33:36.164Z,43.53
2018-03-03T07:36:03.673Z,44.03
2018-03-03T07:38:31.191Z,43.30
2018-03-03T07:40:58.703Z,44.60
2018-03-03T07:43:26.216Z,43.80
2018-03-03T07:45:53.715Z,44.63
2018-03-03T07:48:21.232Z,42.60
2018-03-03T07:50:48.731Z,43.13
2018-03-03T07:53:16.246Z,40.93
2018-03-03T07:55:43.759Z,44.47
2018-03-03T07:58:11.276Z,43.50
2018-03-03T08:00:38.800Z,42.60
2018-03-03T08:03:06.347Z,44.07
2018-03-03T08:05:33.833Z,44.43
2018-03-03T08:08:01.350Z,46.33
2018-03-03T08:10:28.863Z,43.37
2018-03-03T08:12:56.403Z,43.13
2018-03-03T08:15:23.928Z,42.00
2018-03-03T08:17:51.449Z,43.13
2018-03-03T08:20:18.956Z,41.73
2018-03-03T08:22:46.491Z,43.07
2018-03-03T08:25:13.987Z,44.37
2018-03-03T08:27:41.547Z,46.10
2018-03-03T08:30:09.070Z,51.67
2018-03-03T08:32:36.620Z,50.47
2018-03-03T08:35:04.116Z,53.33
2018-03-03T08:37:31.648Z,52.20
2018-03-03T08:39:59.168Z,54.47
2018-03-03T08:42:26.748Z,51.47
2018-03-03T08:44:54.415Z,53.97
2018-03-03T08:47:22.021Z,53.97
2018-03-03T08:49:49.601Z,54.13
2018-03-03T08:52:17.097Z,54.70
2018-03-03T08:54:44.616Z,49.33
2018-03-03T08:57:12.120Z,53.30
2018-03-03T08:59:39.691Z,51.33
2018-03-03T09:02:07.208Z,53.93
2018-03-03T09:04:34.791Z,52.63
2018-03-03T09:07:02.307Z,53.60
2018-03-03T09:09:29.827Z,53.87
2018-03-03T09:11:57.329Z,51.03
2018-03-03T09:14:24.843Z,47.33
2018-03-03T09:16:52.368Z,50.87
2018-03-03T09:19:19.960Z,49.23
2018-03-03T09:21:47.464Z,50.87
2018-03-03T09:24:14.979Z,46.43
2018-03-03T09:26:42.576Z,43.30
2018-03-03T09:29:10.092Z,40.80
2018-03-03T09:31:37.692Z,40.60
2018-03-03T09:34:05.228Z,41.83
2018-03-03T09:36:32.721Z,41.03
2018-03-03T09:39:00.275Z,41.83
2018-03-03T09:41:27.763Z,43.57
2018-03-03T09:43:55.284Z,44.60
2018-03-03T09:46:22.795Z,42.03
2018-03-03T09:48:50.290Z,40.83
2018-03-03T09:51:17.828Z,42.13
2018-03-03T09:53:45.316Z,38.13
2018-03-03T09:56:12.879Z,40.20
2018-03-03T09:58:40.432Z,42.40
2018-03-03T10:01:07.980Z,42.50
2018-03-03T10:03:35.552Z,40.07
2018-03-03T10:06:03.560Z,40.57
2018-03-03T10:08:31.155Z,40.50
2018-03-03T10:10:58.784Z,39.00
2018-03-03T10:13:26.341Z,39.37
2018-03-03T10:15:54.012Z,40.30
2018-03-03T10:18:21.507Z,43.07
2018-03-03T10:20:49.097Z,45.60
2018-03-03T10:23:16.612Z,45.27
2018-03-03T10:25:44.145Z,45.57
2018-03-03T10:28:11.678Z,46.63
2018-03-03T10:30:39.228Z,47.13
2018-03-03T10:33:06.796Z,44.80
2018-03-03T10:35:34.329Z,45.00
2018-03-03T10:38:01.836Z,46.37
2018-03-03T10:40:29.360Z,44.40
2018-03-03T10:42:56.843Z,46.20
2018-03-03T10:45:24.398Z,45.03
2018-03-03T10:47:52.060Z,43.93
2018-03-03T10:50:19.573Z,44.07
2018-03-03T10:52:47.089Z,43.87
2018-03-03T10:55:14.604Z,44.50
2018-03-03T10:57:42.128Z,45.03
2018-03-03T11:00:09.617Z,44.27
2018-03-03T11:02:37.136Z,44.83
2018-03-03T11:05:04.636Z,41.63
2018-03-03T11:07:32.168Z,44.30
2018-03-03T11:09:59.671Z,44.57
2018-03-03T11:12:27.332Z,44.40
2018-03-03T11:14:54.828Z,43.37
2018-03-03T11:17:22.379Z,41.90
2018-03-03T11:19:49.911Z,44.57
2018-03-03T11:22:17.461Z,45.23
2018-03-03T11:24:45.031Z,43.57
2018-03-03T11:27:12.544Z,42.17
2018-03-03T11:29:40.169Z,42.03
2018-03-03T11:32:07.684Z,41.67
2018-03-03T11:34:35.364Z,41.47
2018-03-03T11:37:02.946Z,40.87
2018-03-03T11:39:30.441Z,42.80
2018-03-03T11:41:57.953Z,42.97
2018-03-03T11:44:25.509Z,43.67
2018-03-03T11:46:53.040Z,41.30
2018-03-03T11:49:20.653Z,44.53
2018-03-03T11:51:48.180Z,42.03
2018-03-03T11:54:15.664Z,41.97
2018-03-03T11:56:43.156Z,44.97
2018-03-03T11:59:10.716Z,47.07
2018-03-03T12:01:38.231Z,45.97
2018-03-03T12:04:06.791Z,44.33
2018-03-03T12:06:34.389Z,46.03
2018-03-03T12:09:01.928Z,45.73
2018-03-03T12:11:29.424Z,45.30
2018-03-03T12:13:57.055Z,45.77
2018-03-03T12:16:24.716Z,46.40
2018-03-03T12:18:52.269Z,44.43
2018-03-03T12:21:19.776Z,45.33
2018-03-03T12:23:47.292Z,44.90
2018-03-03T12:26:14.789Z,44.30
2018-03-03T12:28:42.318Z,42.67
2018-03-03T12:31:09.808Z,45.73
2018-03-03T12:33:37.320Z,44.57
2018-03-03T12:36:04.885Z,44.27
2018-03-03T12:38:32.448Z,45.70
2018-03-03T12:40:59.948Z,45.03
2018-03-03T12:43:27.470Z,46.03
2018-03-03T12:45:55.135Z,44.67
2018-03-03T12:48:22.686Z,44.30
2018-03-03T12:50:50.208Z,46.37
2018-03-03T12:53:17.718Z,42.97
2018-03-03T12:55:45.275Z,44.13
2018-03-03T12:58:12.984Z,45.87
2018-03-03T13:00:42.936Z,43.90
2018-03-03T13:03:10.491Z,44.93
2018-03-03T13:05:38.046Z,43.93
2018-03-03T13:08:05.596Z,45.13
2018-03-03T13:10:33.086Z,45.40
2018-03-03T13:13:00.599Z,45.73
2018-03-03T13:15:28.084Z,45.33
2018-03-03T13:17:55.604Z,45.83
2018-03-03T13:20:23.118Z,46.77
2018-03-03T13:22:50.767Z,45.40
2018-03-03T13:25:18.263Z,48.97
2018-03-03T13:27:45.784Z,50.60
2018-03-03T13:30:13.348Z,46.10
2018-03-03T13:32:40.844Z,45.67
2018-03-03T13:35:08.369Z,46.17
2018-03-03T13:37:35.859Z,46.60
2018-03-03T13:40:03.389Z,47.33
2018-03-03T13:42:31.651Z,45.90
2018-03-03T13:44:59.221Z,46.00
2018-03-03T13:47:26.720Z,43.90
2018-03-03T13:49:54.235Z,47.07
2018-03-03T13:52:21.740Z,45.77
2018-03-03T13:54:49.267Z,49.10
2018-03-03T13:57:16.891Z,46.37
2018-03-03T13:59:44.466Z,46.67
2018-03-03T14:02:11.999Z,45.27
2018-03-03T14:04:39.519Z,44.37
2018-03-03T14:07:07.066Z,47.13
2018-03-03T14:09:34.597Z,48.23
2018-03-03T14:12:02.083Z,47.60
2018-03-03T14:14:30.303Z,48.80
2018-03-03T14:16:57.797Z,49.93
2018-03-03T14:19:25.377Z,51.50
2018-03-03T14:21:52.834Z,49.13
2018-03-03T14:24:21.404Z,51.27
2018-03-03T14:26:48.891Z,48.87
2018-03-03T14:29:16.471Z,50.07
2018-03-03T14:31:44.077Z,50.03
2018-03-03T14:34:11.708Z,48.33
2018-03-03T14:36:39.314Z,49.73
2018-03-03T14:39:06.839Z,52.80
2018-03-03T14:41:34.545Z,50.00
2018-03-03T14:44:02.060Z,51.30
2018-03-03T14:46:30.559Z,50.93
2018-03-03T14:48:58.083Z,53.60
2018-03-03T14:51:25.586Z,50.37
2018-03-03T14:53:53.094Z,50.50
2018-03-03T14:56:20.703Z,50.40
2018-03-03T14:58:48.348Z,49.87
2018-03-03T15:01:15.848Z,56.70
2018-03-03T15:03:43.346Z,54.13
2018-03-03T15:06:10.868Z,51.60
2018-03-03T15:08:39.339Z,51.50
2018-03-03T15:11:06.859Z,53.73
2018-03-03T15:13:34.461Z,51.77
2018-03-03T15:16:02.003Z,50.60
2018-03-03T15:18:29.560Z,53.00
2018-03-03T15:20:57.079Z,54.27
2018-03-03T15:23:24.684Z,50.00
2018-03-03T15:25:52.195Z,50.97
2018-03-03T15:28:20.084Z,52.63
2018-03-03T15:30:47.672Z,50.23
2018-03-03T15:33:15.170Z,39.90
2018-03-03T15:35:42.689Z,34.60
2018-03-03T15:38:10.184Z,33.30
2018-03-03T15:40:37.695Z,30.70
2018-03-03T15:43:05.199Z,30.23
2018-03-03T15:45:32.737Z,29.80
2018-03-03T15:48:00.224Z,29.17
2018-03-03T15:50:27.732Z,30.40
2018-03-03T15:52:55.253Z,29.53
2018-03-03T15:55:22.780Z,28.10
2018-03-03T15:57:50.307Z,28.70
2018-03-03T16:00:17.872Z,27.50
2018-03-03T16:02:45.404Z,31.33
2018-03-03T16:05:12.926Z,30.37
2018-03-03T16:07:40.436Z,29.10
2018-03-03T16:10:07.948Z,27.23
2018-03-03T16:12:35.471Z,28.57
2018-03-03T16:15:02.984Z,28.07
2018-03-03T16:17:30.791Z,25.60
2018-03-03T16:19:58.310Z,28.70
2018-03-03T16:22:25.867Z,26.87
2018-03-03T16:24:53.412Z,27.87
2018-03-03T16:27:21.081Z,25.10
2018-03-03T16:29:48.577Z,28.53
2018-03-03T16:32:16.119Z,27.13
2018-03-03T16:34:43.728Z,27.10
2018-03-03T16:37:11.242Z,27.43
2018-03-03T16:39:38.731Z,26.53
2018-03-03T16:42:06.276Z,27.70
2018-03-03T16:44:33.851Z,26.17
2018-03-03T16:47:01.408Z,27.07
2018-03-03T16:49:29.004Z,24.07
2018-03-03T16:51:56.840Z,25.57
2018-03-03T16:54:24.331Z,23.63
2018-03-03T16:56:52.760Z,27.37
2018-03-03T16:59:20.276Z,25.30
2018-03-03T17:01:47.788Z,24.00
2018-03-03T17:04:15.348Z,21.23
2018-03-03T17:06:42.881Z,20.90
2018-03-03T17:09:10.377Z,19.13
2018-03-03T17:11:37.892Z,18.07
2018-03-03T17:14:05.392Z,18.40
2018-03-03T17:16:32.903Z,20.03
2018-03-03T17:19:00.401Z,24.97
2018-03-03T17:21:27.916Z,26.90
2018-03-03T17:23:55.408Z,25.53
2018-03-03T17:26:22.927Z,24.23
2018-03-03T17:28:50.427Z,30.67
2018-03-03T17:31:17.917Z,34.87
2018-03-03T17:33:45.452Z,32.63
2018-03-03T17:36:12.944Z,32.40
2018-03-03T17:38:40.782Z,28.33
2018-03-03T17:41:08.386Z,30.23
2018-03-03T17:43:35.888Z,34.07
2018-03-03T17:46:03.392Z,32.33
2018-03-03T17:48:30.908Z,28.50
2018-03-03T17:50:58.500Z,28.00
2018-03-03T17:53:26.151Z,23.23
2018-03-03T17:55:53.656Z,25.73
2018-03-03T17:58:21.323Z,26.70
2018-03-03T18:00:48.812Z,24.77
2018-03-03T18:03:16.332Z,25.57
2018-03-03T18:05:43.836Z,28.80
2018-03-03T18:08:11.355Z,31.87
2018-03-03T18:10:38.854Z,28.73
2018-03-03T18:13:07.280Z,30.13
2018-03-03T18:15:34.773Z,33.63
2018-03-03T18:18:02.283Z,32.63
2018-03-03T18:20:29.804Z,32.67
2018-03-03T18:22:57.315Z,31.83
2018-03-03T18:25:24.811Z,35.90
2018-03-03T18:27:52.331Z,34.07
2018-03-03T18:30:19.827Z,34.70
2018-03-03T18:32:47.355Z,32.77
2018-03-03T18:35:14.881Z,30.93
2018-03-03T18:37:42.384Z,43.00
2018-03-03T18:40:09.901Z,34.77
2018-03-03T18:42:37.431Z,35.37
2018-03-03T18:45:04.944Z,34.30
2018-03-03T18:47:32.436Z,32.33
2018-03-03T18:49:59.992Z,30.90
2018-03-03T18:52:27.567Z,30.77
2018-03-03T18:54:55.079Z,32.93
2018-03-03T18:57:22.571Z,30.17
2018-03-03T18:59:50.088Z,31.30
2018-03-03T19:02:17.726Z,32.57
2018-03-03T19:04:45.260Z,32.83
2018-03-03T19:07:12.769Z,31.43
2018-03-03T19:09:40.337Z,31.17
2018-03-03T19:12:07.824Z,37.47
2018-03-03T19:14:35.348Z,36.53
2018-03-03T19:17:02.849Z,35.00
2018-03-03T19:19:30.360Z,32.40
2018-03-03T19:21:57.884Z,30.77
2018-03-03T19:24:25.425Z,33.10
2018-03-03T19:26:52.945Z,38.33
2018-03-03T19:29:20.472Z,43.40
2018-03-03T19:31:48.020Z,38.93
2018-03-03T19:34:15.581Z,37.63
2018-03-03T19:36:43.136Z,43.00
2018-03-03T19:39:10.721Z,40.77
2018-03-03T19:41:38.232Z,38.77
2018-03-03T19:44:05.834Z,41.27
2018-03-03T19:46:33.320Z,46.50
2018-03-03T19:49:00.904Z,46.27
2018-03-03T19:51:28.426Z,36.33
2018-03-03T19:53:55.926Z,33.87
2018-03-03T19:56:23.445Z,25.13
2018-03-03T19:58:50.930Z,21.47
2018-03-03T20:01:18.453Z,22.50
2018-03-03T20:03:45.980Z,20.50
2018-03-03T20:06:13.776Z,22.73
2018-03-03T20:08:41.268Z,21.07
2018-03-03T20:11:08.800Z,22.37
2018-03-03T20:13:36.297Z,20.70
2018-03-03T20:16:03.811Z,21.73
2018-03-03T20:18:31.375Z,20.70
2018-03-03T20:20:58.888Z,22.43
2018-03-03T20:23:26.380Z,20.80
2018-03-03T20:25:53.910Z,20.73
2018-03-03T20:28:21.508Z,18.27
2018-03-03T20:30:49.254Z,22.03
2018-03-03T20:33:16.744Z,24.93
2018-03-03T20:35:44.280Z,25.10
2018-03-03T20:38:11.860Z,26.20
2018-03-03T20:40:39.380Z,28.33
2018-03-03T20:43:06.876Z,29.73
2018-03-03T20:45:34.368Z,30.00
2018-03-03T20:48:01.890Z,34.03
2018-03-03T20:50:29.579Z,31.83
2018-03-03T20:52:57.151Z,29.60
2018-03-03T20:55:25.667Z,29.37
2018-03-03T20:57:53.200Z,27.07
2018-03-03T21:00:20.736Z,29.30
2018-03-03T21:02:48.322Z,30.23
2018-03-03T21:05:15.825Z,29.90
2018-03-03T21:07:43.387Z,23.97
2018-03-03T21:10:10.893Z,28.97
2018-03-03T21:12:50.844Z,29.57
2018-03-03T21:15:18.392Z,28.53
2018-03-03T21:17:46.019Z,27.50
2018-03-03T21:20:13.579Z,25.93
2018-03-03T21:22:41.136Z,31.63
2018-03-03T21:25:08.698Z,30.30
2018-03-03T21:27:36.278Z,29.10
2018-03-03T21:30:03.796Z,28.20
2018-03-03T21:32:32.095Z,29.80
2018-03-03T21:34:59.622Z,30.60
2018-03-03T21:37:27.220Z,28.53
2018-03-03T21:39:54.722Z,30.50
2018-03-03T21:42:22.328Z,30.80
2018-03-03T21:44:49.831Z,28.03
2018-03-03T21:47:17.352Z,30.53
2018-03-03T21:49:44.907Z,31.57
2018-03-03T21:52:12.423Z,32.73
2018-03-03T21:54:39.929Z,27.00
2018-03-03T21:57:07.424Z,26.30
2018-03-03T21:59:34.936Z,28.87
2018-03-03T22:02:02.507Z,29.60
2018-03-03T22:04:30.024Z,32.93
2018-03-03T22:06:57.520Z,29.87
2018-03-03T22:09:25.040Z,29.23
2018-03-03T22:11:52.527Z,30.33
2018-03-03T22:14:20.048Z,29.27
2018-03-03T22:16:47.539Z,29.07
2018-03-03T22:19:15.059Z,27.73
2018-03-03T22:21:42.566Z,29.10
2018-03-03T22:24:10.102Z,29.40
2018-03-03T22:26:37.601Z,29.67
2018-03-03T22:29:05.120Z,30.23
2018-03-03T22:31:32.609Z,25.57
2018-03-03T22:34:00.140Z,30.67
2018-03-03T22:36:27.704Z,27.83
2018-03-03T22:38:55.215Z,34.33
2018-03-03T22:41:22.757Z,34.40
2018-03-03T22:43:50.279Z,31.10
2018-03-03T22:46:17.830Z,30.27
2018-03-03T22:48:45.344Z,31.50
2018-03-03T22:51:12.971Z,30.50
2018-03-03T22:53:40.484Z,33.53
2018-03-03T22:56:08.003Z,35.90
2018-03-03T22:58:35.540Z,31.13
2018-03-03T23:01:03.052Z,31.17
2018-03-03T23:03:30.578Z,31.83
2018-03-03T23:05:58.190Z,34.07
2018-03-03T23:08:25.639Z,34.47
2018-03-03T23:10:53.164Z,38.30
2018-03-03T23:13:20.651Z,37.43
2018-03-03T23:15:48.263Z,37.53
2018-03-03T23:18:15.840Z,34.63
2018-03-03T23:20:43.361Z,34.83
2018-03-03T23:23:10.860Z,33.63
2018-03-03T23:25:38.409Z,34.80
2018-03-03T23:28:05.976Z,33.13
2018-03-03T23:30:33.522Z,34.20
2018-03-03T23:33:01.089Z,34.57
2018-03-03T23:35:28.628Z,35.07
2018-03-03T23:37:56.116Z,38.33
2018-03-03T23:40:23.650Z,36.57
2018-03-03T23:42:51.164Z,37.00
2018-03-03T23:45:18.687Z,39.27
2018-03-03T23:47:46.185Z,36.77
2018-03-03T23:50:13.723Z,33.90
2018-03-03T23:52:41.223Z,39.03
2018-03-03T23:55:08.772Z,40.87
2018-03-03T23:57:36.275Z,43.10
